createdAt,value
2018-05-12T00:02:12.633Z,21.53
2018-05-12T00:04:40.072Z,22.23
2018-05-12T00:07:07.498Z,22.07
2018-05-12T00:09:34.943Z,23.10
2018-05-12T00:12:02.390Z,23.07
2018-05-12T00:14:29.838Z,22.17
2018-05-12T00:16:57.288Z,22.70
2018-05-12T00:19:25.495Z,22.10
2018-05-12T00:21:54.435Z,21.40
2018-05-12T00:24:22.483Z,21.20
2018-05-12T00:26:50.323Z,22.33
2018-05-12T00:29:18.163Z,23.10
2018-05-12T00:31:45.598Z,22.40
2018-05-12T00:34:13.054Z,22.00
2018-05-12T00:36:40.486Z,22.50
2018-05-12T00:39:07.923Z,21.97
2018-05-12T00:41:36.133Z,21.97
2018-05-12T00:44:03.557Z,23.07
2018-05-12T00:46:31.767Z,20.30
2018-05-12T00:48:59.202Z,21.03
2018-05-12T00:51:26.655Z,20.20
2018-05-12T00:53:54.090Z,22.37
2018-05-12T00:56:21.541Z,22.83
2018-05-12T00:58:48.985Z,25.00
2018-05-12T01:01:16.427Z,23.67
2018-05-12T01:03:43.863Z,24.40
2018-05-12T01:06:11.315Z,23.70
2018-05-12T01:08:39.108Z,24.27
2018-05-12T01:11:06.552Z,23.30
2018-05-12T01:13:34.064Z,25.27
2018-05-12T01:16:01.431Z,26.77
2018-05-12T01:18:28.869Z,26.80
2018-05-12T01:20:57.079Z,26.17
2018-05-12T01:23:24.514Z,24.60
2018-05-12T01:25:51.967Z,23.60
2018-05-12T01:28:19.409Z,24.60
2018-05-12T01:30:47.675Z,26.13
2018-05-12T01:33:15.106Z,25.93
2018-05-12T01:35:42.546Z,23.70
2018-05-12T01:38:09.997Z,25.90
2018-05-12T01:40:37.442Z,25.23
2018-05-12T01:43:04.887Z,24.60
2018-05-12T01:45:32.337Z,26.23
2018-05-12T01:47:59.771Z,26.40
2018-05-12T01:50:27.983Z,26.77
2018-05-12T01:52:56.192Z,25.47
2018-05-12T01:55:24.405Z,24.97
2018-05-12T01:57:52.623Z,25.77
2018-05-12T02:00:20.067Z,26.10
2018-05-12T02:02:47.723Z,25.60
2018-05-12T02:05:15.514Z,25.00
2018-05-12T02:07:42.948Z,24.60
2018-05-12T02:10:10.779Z,24.90
2018-05-12T02:12:38.992Z,26.47
2018-05-12T02:15:06.631Z,26.57
2018-05-12T02:17:34.067Z,25.77
2018-05-12T02:20:02.647Z,25.63
2018-05-12T02:22:30.078Z,25.17
2018-05-12T02:24:57.520Z,25.97
2018-05-12T02:27:24.967Z,24.87
2018-05-12T02:29:53.167Z,23.83
2018-05-12T02:32:20.619Z,26.00
2018-05-12T02:34:48.058Z,25.03
2018-05-12T02:37:15.508Z,24.47
2018-05-12T02:39:42.956Z,25.40
2018-05-12T02:42:10.412Z,25.47
2018-05-12T02:44:37.872Z,24.03
2018-05-12T02:47:05.362Z,26.07
2018-05-12T02:49:32.832Z,25.03
2018-05-12T02:52:00.316Z,24.60
2018-05-12T02:54:27.851Z,25.87
2018-05-12T02:56:55.364Z,23.73
2018-05-12T02:59:22.802Z,24.87
2018-05-12T03:01:50.243Z,23.47
2018-05-12T03:04:17.691Z,24.37
2018-05-12T03:06:45.123Z,23.80
2018-05-12T03:09:12.783Z,23.20
2018-05-12T03:11:40.216Z,25.07
2018-05-12T03:14:07.671Z,26.40
2018-05-12T03:16:35.103Z,23.93
2018-05-12T03:19:02.555Z,25.63
2018-05-12T03:21:29.985Z,23.00
2018-05-12T03:23:58.191Z,24.43
2018-05-12T03:26:26.407Z,25.93
2018-05-12T03:28:53.847Z,24.20
2018-05-12T03:31:21.687Z,24.57
2018-05-12T03:33:49.121Z,24.70
2018-05-12T03:36:16.555Z,25.60
2018-05-12T03:38:44.772Z,26.70
2018-05-12T03:41:12.591Z,27.50
2018-05-12T03:43:40.235Z,26.90
2018-05-12T03:46:07.671Z,26.70
2018-05-12T03:48:35.112Z,26.40
2018-05-12T03:51:03.685Z,27.47
2018-05-12T03:53:31.126Z,25.50
2018-05-12T03:55:58.551Z,24.67
2018-05-12T03:58:25.995Z,25.23
2018-05-12T04:00:53.435Z,25.40
2018-05-12T04:03:20.904Z,26.10
2018-05-12T04:06:00.437Z,25.20
2018-05-12T04:08:40.973Z,24.50
2018-05-12T04:11:20.242Z,25.03
2018-05-12T04:13:48.503Z,25.70
2018-05-12T04:16:16.414Z,23.53
2018-05-12T04:18:44.670Z,24.63
2018-05-12T04:21:12.194Z,24.00
2018-05-12T04:23:39.848Z,23.87
2018-05-12T04:26:07.509Z,24.50
2018-05-12T04:28:34.943Z,26.00
2018-05-12T04:31:03.154Z,26.40
2018-05-12T04:33:30.596Z,24.43
2018-05-12T04:35:58.040Z,27.03
2018-05-12T04:38:26.250Z,27.07
2018-05-12T04:40:54.098Z,25.90
2018-05-12T04:43:21.545Z,26.60
2018-05-12T04:45:49.388Z,25.70
2018-05-12T04:48:17.219Z,25.27
2018-05-12T04:50:44.671Z,26.87
2018-05-12T04:53:12.799Z,26.20
2018-05-12T04:55:40.843Z,25.37
2018-05-12T04:58:08.673Z,26.40
2018-05-12T05:00:36.123Z,26.63
2018-05-12T05:03:03.791Z,27.20
2018-05-12T05:05:32.744Z,24.60
2018-05-12T05:08:00.167Z,27.30
2018-05-12T05:10:28.379Z,29.03
2018-05-12T05:12:55.811Z,28.70
2018-05-12T05:15:23.306Z,26.90
2018-05-12T05:17:51.461Z,30.00
2018-05-12T05:20:18.903Z,29.20
2018-05-12T05:22:46.334Z,29.37
2018-05-12T05:25:14.558Z,28.00
2018-05-12T05:27:42.763Z,28.73
2018-05-12T05:30:10.271Z,28.13
2018-05-12T05:32:37.703Z,28.77
2018-05-12T05:35:05.919Z,28.00
2018-05-12T05:37:33.352Z,30.00
2018-05-12T05:40:00.794Z,30.20
2018-05-12T05:42:28.995Z,31.50
2018-05-12T05:44:57.202Z,30.40
2018-05-12T05:47:24.654Z,30.33
2018-05-12T05:49:52.491Z,31.10
2018-05-12T05:52:20.716Z,32.20
2018-05-12T05:54:48.151Z,31.47
2018-05-12T05:57:15.597Z,30.73
2018-05-12T05:59:43.045Z,31.50
2018-05-12T06:02:10.492Z,31.27
2018-05-12T06:04:37.945Z,30.40
2018-05-12T06:07:05.444Z,30.20
2018-05-12T06:09:32.815Z,31.77
2018-05-12T06:12:01.038Z,31.97
2018-05-12T06:14:28.485Z,31.20
2018-05-12T06:16:55.942Z,29.77
2018-05-12T06:19:24.524Z,29.30
2018-05-12T06:21:51.970Z,30.60
2018-05-12T06:24:19.410Z,30.47
2018-05-12T06:26:46.947Z,31.47
2018-05-12T06:29:14.691Z,31.13
2018-05-12T06:31:42.135Z,32.57
2018-05-12T06:34:09.571Z,33.90
2018-05-12T06:36:37.026Z,33.20
2018-05-12T06:39:04.471Z,31.87
2018-05-12T06:41:31.922Z,32.60
2018-05-12T06:43:59.367Z,31.53
2018-05-12T06:46:27.579Z,31.53
2018-05-12T06:48:55.027Z,32.40
2018-05-12T06:51:22.874Z,32.93
2018-05-12T06:53:50.314Z,31.37
2018-05-12T06:56:18.531Z,30.03
2018-05-12T06:58:45.977Z,31.50
2018-05-12T07:01:14.186Z,33.07
2018-05-12T07:03:41.626Z,31.27
2018-05-12T07:06:09.070Z,30.20
2018-05-12T07:08:36.518Z,32.80
2018-05-12T07:11:03.962Z,31.73
2018-05-12T07:13:31.410Z,33.30
2018-05-12T07:15:59.230Z,31.90
2018-05-12T07:18:26.682Z,30.77
2018-05-12T07:20:54.944Z,30.47
2018-05-12T07:23:23.100Z,33.90
2018-05-12T07:25:50.526Z,31.83
2018-05-12T07:28:17.965Z,29.83
2018-05-12T07:30:46.547Z,30.57
2018-05-12T07:33:14.000Z,31.37
2018-05-12T07:35:41.443Z,30.67
2018-05-12T07:38:08.878Z,29.67
2018-05-12T07:40:36.326Z,29.60
2018-05-12T07:43:03.783Z,29.50
2018-05-12T07:45:31.242Z,31.07
2018-05-12T07:47:59.049Z,29.27
2018-05-12T07:50:26.895Z,29.27
2018-05-12T07:52:54.754Z,30.10
2018-05-12T07:55:22.587Z,29.87
2018-05-12T07:57:50.428Z,30.20
2018-05-12T08:00:18.632Z,31.30
2018-05-12T08:02:46.086Z,30.30
2018-05-12T08:05:13.914Z,30.27
2018-05-12T08:07:41.755Z,30.27
2018-05-12T08:10:09.183Z,29.80
2018-05-12T08:12:36.629Z,30.67
2018-05-12T08:15:04.085Z,30.50
2018-05-12T08:17:31.509Z,30.07
2018-05-12T08:19:59.342Z,30.90
2018-05-12T08:22:26.783Z,28.50
2018-05-12T08:24:54.232Z,28.33
2018-05-12T08:27:21.663Z,29.00
2018-05-12T08:29:49.511Z,27.50
2018-05-12T08:32:17.702Z,27.00
2018-05-12T08:34:45.138Z,26.67
2018-05-12T08:37:13.343Z,23.50
2018-05-12T08:39:40.787Z,27.47
2018-05-12T08:42:08.223Z,25.00
2018-05-12T08:44:36.643Z,24.87
2018-05-12T08:47:04.838Z,25.40
2018-05-12T08:49:32.692Z,26.23
2018-05-12T08:52:00.131Z,26.70
2018-05-12T08:54:27.976Z,26.10
2018-05-12T08:56:55.415Z,25.73
2018-05-12T08:59:23.991Z,22.97
2018-05-12T09:01:52.201Z,21.30
2018-05-12T09:04:19.641Z,22.70
2018-05-12T09:06:47.074Z,25.43
2018-05-12T09:09:14.516Z,24.33
2018-05-12T09:11:41.952Z,23.73
2018-05-12T09:14:09.402Z,22.27
2018-05-12T09:16:36.837Z,20.00
2018-05-12T09:19:04.675Z,22.00
2018-05-12T09:21:32.883Z,19.27
2018-05-12T09:24:00.332Z,17.20
2018-05-12T09:26:28.168Z,15.10
2018-05-12T09:28:56.381Z,15.80
2018-05-12T09:31:23.834Z,15.17
2018-05-12T09:33:51.267Z,14.20
2018-05-12T09:36:18.715Z,16.30
2018-05-12T09:38:46.919Z,19.90
2018-05-12T09:41:14.362Z,19.27
2018-05-12T09:43:41.794Z,19.90
2018-05-12T09:46:10.006Z,17.90
2018-05-12T09:48:37.456Z,18.10
2018-05-12T09:51:04.890Z,16.87
2018-05-12T09:53:32.725Z,16.17
2018-05-12T09:56:00.159Z,15.83
2018-05-12T09:58:27.602Z,23.60
2018-05-12T10:00:55.808Z,17.00
2018-05-12T10:03:23.654Z,16.07
2018-05-12T10:05:51.838Z,15.63
2018-05-12T10:08:19.288Z,15.60
2018-05-12T10:10:46.727Z,16.57
2018-05-12T10:13:14.174Z,16.23
2018-05-12T10:15:41.604Z,17.27
2018-05-12T10:18:09.806Z,16.03
2018-05-12T10:20:37.262Z,15.70
2018-05-12T10:23:04.712Z,13.53
2018-05-12T10:25:32.159Z,13.03
2018-05-12T10:27:59.993Z,11.93
2018-05-12T10:30:27.430Z,13.63
2018-05-12T10:32:54.870Z,13.23
2018-05-12T10:35:22.315Z,12.53
2018-05-12T10:37:50.523Z,12.33
2018-05-12T10:40:18.732Z,13.10
2018-05-12T10:42:46.937Z,11.73
2018-05-12T10:45:14.398Z,11.30
2018-05-12T10:47:42.236Z,8.07
2018-05-12T10:50:09.686Z,8.73
2018-05-12T10:52:38.250Z,8.50
2018-05-12T10:55:06.461Z,8.57
2018-05-12T10:57:33.914Z,9.00
2018-05-12T11:00:01.384Z,8.17
2018-05-12T11:02:28.827Z,6.77
2018-05-12T11:04:56.646Z,6.20
2018-05-12T11:07:24.482Z,5.33
2018-05-12T11:09:51.932Z,5.63
2018-05-12T11:12:19.375Z,5.47
2018-05-12T11:14:47.207Z,5.83
2018-05-12T11:17:15.415Z,5.43
2018-05-12T11:19:42.854Z,4.90
2018-05-12T11:22:10.686Z,6.00
2018-05-12T11:24:38.926Z,4.47
2018-05-12T11:27:06.764Z,4.73
2018-05-12T11:29:34.196Z,4.63
2018-05-12T11:32:02.403Z,4.03
2018-05-12T11:34:29.827Z,3.90
2018-05-12T11:36:57.263Z,5.10
2018-05-12T11:39:24.694Z,5.17
2018-05-12T11:41:52.532Z,4.70
2018-05-12T11:44:21.387Z,4.27
2018-05-12T11:46:48.738Z,4.10
2018-05-12T11:49:16.939Z,4.50
2018-05-12T11:51:44.767Z,4.73
2018-05-12T11:54:12.215Z,4.50
2018-05-12T11:56:39.657Z,4.27
2018-05-12T11:59:07.090Z,4.20
2018-05-12T12:01:34.547Z,4.40
2018-05-12T12:04:03.525Z,3.67
2018-05-12T12:06:30.967Z,3.70
2018-05-12T12:08:58.390Z,4.37
2018-05-12T12:11:25.822Z,4.40
2018-05-12T12:13:53.261Z,4.10
2018-05-12T12:16:20.698Z,3.53
2018-05-12T12:18:48.126Z,3.17
2018-05-12T12:21:15.963Z,3.60
2018-05-12T12:23:43.412Z,3.40
2018-05-12T12:26:10.849Z,4.00
2018-05-12T12:28:38.342Z,3.40
2018-05-12T12:31:05.766Z,3.37
2018-05-12T12:33:33.202Z,3.77
2018-05-12T12:36:00.637Z,4.30
2018-05-12T12:38:28.844Z,3.67
2018-05-12T12:40:56.255Z,4.30
2018-05-12T12:43:24.081Z,4.27
2018-05-12T12:45:51.522Z,4.20
2018-05-12T12:48:18.979Z,4.67
2018-05-12T12:50:47.170Z,3.60
2018-05-12T12:53:14.616Z,4.33
2018-05-12T12:55:42.042Z,3.63
2018-05-12T12:58:09.479Z,3.00
2018-05-12T13:00:37.680Z,4.00
2018-05-12T13:03:05.107Z,4.00
2018-05-12T13:05:33.299Z,4.10
2018-05-12T13:08:01.136Z,3.53
2018-05-12T13:10:28.956Z,3.77
2018-05-12T13:12:56.406Z,3.17
2018-05-12T13:15:23.882Z,4.13
2018-05-12T13:17:51.322Z,3.80
2018-05-12T13:20:18.743Z,4.20
2018-05-12T13:22:46.954Z,3.80
2018-05-12T13:25:14.381Z,4.37
2018-05-12T13:27:42.210Z,4.13
2018-05-12T13:30:10.452Z,5.23
2018-05-12T13:32:37.889Z,4.20
2018-05-12T13:35:05.320Z,4.47
2018-05-12T13:37:32.759Z,4.77
2018-05-12T13:40:00.190Z,4.37
2018-05-12T13:42:27.642Z,4.47
2018-05-12T13:44:55.091Z,4.60
2018-05-12T13:47:22.538Z,3.50
2018-05-12T13:49:49.975Z,4.37
2018-05-12T13:52:18.539Z,4.60
2018-05-12T13:54:46.751Z,3.97
2018-05-12T13:57:14.192Z,4.53
2018-05-12T13:59:41.627Z,4.23
2018-05-12T14:02:15.786Z,4.20
2018-05-12T14:04:43.226Z,4.40
2018-05-12T14:07:11.042Z,3.70
2018-05-12T14:09:38.484Z,3.67
2018-05-12T14:12:05.912Z,3.93
2018-05-12T14:14:33.350Z,3.60
2018-05-12T14:17:00.779Z,4.60
2018-05-12T14:19:28.982Z,3.90
2018-05-12T14:21:56.415Z,3.93
2018-05-12T14:24:24.623Z,4.07
2018-05-12T14:26:52.820Z,3.93
2018-05-12T14:29:20.259Z,3.93
2018-05-12T14:31:48.083Z,4.30
2018-05-12T14:34:16.656Z,3.60
2018-05-12T14:36:44.859Z,4.07
2018-05-12T14:39:12.691Z,3.10
2018-05-12T14:41:40.523Z,3.57
2018-05-12T14:44:07.960Z,3.13
2018-05-12T14:46:35.387Z,3.10
2018-05-12T14:49:03.600Z,3.20
2018-05-12T14:51:31.041Z,2.87
2018-05-12T14:53:58.479Z,2.83
2018-05-12T14:56:25.907Z,3.17
2018-05-12T14:58:53.367Z,3.00
2018-05-12T15:01:20.799Z,3.57
2018-05-12T15:03:48.235Z,3.60
2018-05-12T15:06:15.681Z,3.30
2018-05-12T15:08:43.535Z,3.43
2018-05-12T15:11:11.370Z,2.20
2018-05-12T15:13:39.180Z,2.73
2018-05-12T15:16:06.618Z,2.83
2018-05-12T15:18:34.448Z,3.70
2018-05-12T15:21:02.270Z,3.53
2018-05-12T15:23:29.737Z,3.23
2018-05-12T15:25:57.170Z,3.03
2018-05-12T15:28:24.593Z,2.97
2018-05-12T15:30:52.808Z,3.87
2018-05-12T15:33:20.239Z,3.33
2018-05-12T15:35:48.081Z,2.70
2018-05-12T15:38:15.903Z,4.13
2018-05-12T15:40:44.476Z,2.50
2018-05-12T15:43:12.675Z,3.57
2018-05-12T15:45:40.884Z,3.33
2018-05-12T15:48:09.092Z,4.23
2018-05-12T15:50:36.530Z,4.10
2018-05-12T15:53:04.342Z,3.87
2018-05-12T15:55:32.170Z,4.10
2018-05-12T15:57:59.606Z,3.60
2018-05-12T16:00:27.430Z,3.90
2018-05-12T16:02:54.867Z,4.20
2018-05-12T16:05:23.442Z,4.47
2018-05-12T16:07:50.875Z,4.23
2018-05-12T16:10:18.310Z,3.70
2018-05-12T16:12:45.726Z,3.43
2018-05-12T16:15:13.175Z,3.60
2018-05-12T16:17:41.374Z,3.37
2018-05-12T16:20:09.945Z,3.83
2018-05-12T16:22:37.374Z,4.07
2018-05-12T16:25:04.815Z,3.53
2018-05-12T16:27:32.239Z,3.53
2018-05-12T16:29:59.677Z,3.30
2018-05-12T16:32:27.119Z,3.07
2018-05-12T16:34:54.571Z,3.73
2018-05-12T16:37:22.464Z,4.33
2018-05-12T16:39:49.826Z,3.60
2018-05-12T16:42:17.648Z,4.30
2018-05-12T16:44:45.083Z,5.20
2018-05-12T16:47:12.528Z,5.33
2018-05-12T16:49:40.711Z,5.10
2018-05-12T16:52:08.146Z,4.53
2018-05-12T16:54:36.351Z,4.30
2018-05-12T16:57:04.180Z,5.33
2018-05-12T16:59:31.607Z,4.43
2018-05-12T17:01:59.051Z,5.07
2018-05-12T17:04:27.246Z,4.90
2018-05-12T17:06:54.716Z,4.57
2018-05-12T17:09:22.146Z,5.17
2018-05-12T17:11:49.578Z,5.50
2018-05-12T17:14:16.999Z,3.77
2018-05-12T17:16:44.826Z,3.77
2018-05-12T17:19:12.258Z,4.10
2018-05-12T17:21:39.691Z,3.40
2018-05-12T17:24:07.518Z,3.70
2018-05-12T17:26:34.966Z,3.47
2018-05-12T17:29:02.390Z,4.60
2018-05-12T17:31:29.825Z,4.70
2018-05-12T17:33:57.258Z,4.83
2018-05-12T17:36:25.468Z,4.77
2018-05-12T17:38:52.909Z,5.20
2018-05-12T17:41:20.341Z,4.73
2018-05-12T17:43:48.556Z,4.80
2018-05-12T17:46:16.382Z,5.07
2018-05-12T17:48:44.224Z,5.23
2018-05-12T17:51:11.678Z,5.23
2018-05-12T17:53:39.117Z,6.40
2018-05-12T17:56:06.553Z,5.83
2018-05-12T17:58:33.986Z,5.30
2018-05-12T18:01:01.423Z,5.37
2018-05-12T18:03:29.249Z,6.10
2018-05-12T18:05:56.687Z,5.47
2018-05-12T18:08:24.879Z,7.03
2018-05-12T18:10:52.329Z,7.20
2018-05-12T18:13:19.775Z,8.50
2018-05-12T18:15:48.343Z,8.00
2018-05-12T18:18:15.771Z,7.73
2018-05-12T18:20:43.605Z,7.63
2018-05-12T18:23:11.059Z,6.80
2018-05-12T18:25:38.473Z,6.37
2018-05-12T18:28:05.912Z,6.30
2018-05-12T18:30:34.117Z,6.97
2018-05-12T18:33:01.566Z,7.73
2018-05-12T18:35:29.003Z,6.80
2018-05-12T18:37:57.204Z,7.07
2018-05-12T18:40:25.768Z,7.23
2018-05-12T18:42:53.204Z,6.63
2018-05-12T18:45:21.402Z,7.20
2018-05-12T18:47:48.844Z,6.67
2018-05-12T18:50:17.043Z,6.13
2018-05-12T18:52:44.480Z,5.87
2018-05-12T18:55:11.961Z,6.53
2018-05-12T18:57:39.399Z,7.20
2018-05-12T19:00:06.827Z,6.50
2018-05-12T19:02:34.666Z,7.20
2018-05-12T19:05:02.096Z,7.33
2018-05-12T19:07:29.927Z,6.97
2018-05-12T19:09:58.123Z,8.03
2018-05-12T19:12:25.559Z,7.30
2018-05-12T19:14:52.995Z,6.07
2018-05-12T19:17:20.434Z,6.70
2018-05-12T19:19:48.264Z,6.50
2018-05-12T19:22:16.472Z,8.00
2018-05-12T19:24:43.964Z,7.30
2018-05-12T19:27:12.159Z,7.07
2018-05-12T19:29:39.599Z,6.80
2018-05-12T19:32:07.044Z,6.20
2018-05-12T19:34:35.251Z,7.13
2018-05-12T19:37:02.683Z,7.37
2018-05-12T19:39:31.254Z,7.77
2018-05-12T19:42:00.336Z,6.80
2018-05-12T19:44:29.275Z,6.90
2018-05-12T19:46:56.715Z,8.23
2018-05-12T19:49:24.162Z,7.23
2018-05-12T19:51:51.603Z,6.83
2018-05-12T19:54:19.810Z,7.37
2018-05-12T19:56:47.307Z,8.20
2018-05-12T19:59:15.451Z,9.20
2018-05-12T20:01:42.897Z,9.17
2018-05-12T20:04:10.331Z,8.97
2018-05-12T20:06:38.527Z,8.30
2018-05-12T20:09:05.967Z,8.73
2018-05-12T20:11:33.390Z,7.63
2018-05-12T20:14:00.847Z,7.13
2018-05-12T20:16:28.280Z,8.30
2018-05-12T20:18:55.745Z,8.00
2018-05-12T20:21:23.189Z,8.30
2018-05-12T20:23:50.630Z,7.50
2018-05-12T20:26:18.066Z,7.57
2018-05-12T20:28:45.510Z,8.13
2018-05-12T20:31:12.946Z,8.50
2018-05-12T20:33:40.396Z,8.40
2018-05-12T20:36:07.874Z,8.33
2018-05-12T20:38:36.078Z,9.20
2018-05-12T20:41:03.520Z,9.50
2018-05-12T20:43:30.971Z,7.60
2018-05-12T20:45:58.398Z,8.30
2018-05-12T20:48:25.850Z,8.57
2018-05-12T20:50:53.281Z,8.20
2018-05-12T20:53:20.734Z,7.70
2018-05-12T20:55:48.158Z,8.63
2018-05-12T20:58:15.627Z,7.07
2018-05-12T21:00:43.464Z,8.23
2018-05-12T21:03:11.716Z,8.50
2018-05-12T21:05:39.111Z,8.47
2018-05-12T21:08:06.539Z,9.03
2018-05-12T21:10:34.747Z,9.10
2018-05-12T21:13:02.566Z,8.43
2018-05-12T21:15:30.004Z,8.70
2018-05-12T21:17:57.427Z,8.60
2018-05-12T21:20:24.878Z,8.53
2018-05-12T21:22:52.303Z,8.63
2018-05-12T21:25:20.134Z,8.50
2018-05-12T21:27:47.570Z,9.37
2018-05-12T21:30:15.019Z,9.87
2018-05-12T21:32:42.454Z,8.93
2018-05-12T21:35:09.894Z,8.60
2018-05-12T21:37:37.722Z,8.67
2018-05-12T21:40:05.173Z,9.63
2018-05-12T21:42:32.595Z,8.97
2018-05-12T21:45:00.067Z,9.40
2018-05-12T21:47:27.495Z,8.90
2018-05-12T21:49:54.930Z,8.70
2018-05-12T21:52:23.125Z,8.97
2018-05-12T21:54:50.560Z,8.53
2018-05-12T21:57:17.986Z,8.90
2018-05-12T21:59:45.446Z,9.53
2018-05-12T22:02:12.874Z,9.60
2018-05-12T22:04:40.314Z,9.00
2018-05-12T22:07:08.139Z,9.37
2018-05-12T22:09:35.570Z,8.80
2018-05-12T22:12:03.007Z,9.80
2018-05-12T22:14:31.206Z,12.17
2018-05-12T22:16:58.654Z,12.57
2018-05-12T22:19:26.102Z,11.73
2018-05-12T22:21:53.544Z,12.17
2018-05-12T22:24:20.991Z,13.87
2018-05-12T22:26:48.438Z,12.30
2018-05-12T22:29:15.882Z,12.53
2018-05-12T22:31:44.098Z,12.50
2018-05-12T22:34:11.544Z,12.97
2018-05-12T22:36:38.983Z,12.53
2018-05-12T22:39:06.421Z,12.43
2018-05-12T22:41:34.629Z,12.93
2018-05-12T22:44:02.835Z,13.30
2018-05-12T22:46:30.272Z,12.70
2018-05-12T22:48:57.710Z,13.77
2018-05-12T22:51:25.155Z,13.47
2018-05-12T22:53:52.599Z,12.90
2018-05-12T22:56:20.429Z,12.60
2018-05-12T22:58:47.863Z,13.80
2018-05-12T23:01:15.307Z,13.70
2018-05-12T23:03:42.750Z,13.37
2018-05-12T23:06:10.197Z,12.83
2018-05-12T23:08:38.030Z,14.33
2018-05-12T23:11:05.460Z,12.63
2018-05-12T23:13:32.894Z,13.07
2018-05-12T23:16:00.344Z,12.50
2018-05-12T23:18:27.860Z,12.83
2018-05-12T23:20:55.267Z,12.83
2018-05-12T23:23:23.111Z,15.30
2018-05-12T23:25:50.554Z,12.50
2018-05-12T23:28:18.399Z,13.40
2018-05-12T23:30:45.840Z,11.67
2018-05-12T23:33:13.283Z,12.00
2018-05-12T23:35:40.724Z,11.73
2018-05-12T23:38:08.173Z,11.47
2018-05-12T23:40:35.598Z,12.27
2018-05-12T23:43:03.803Z,12.10
2018-05-12T23:45:31.629Z,11.77
2018-05-12T23:47:59.847Z,10.73
2018-05-12T23:50:27.287Z,11.90
2018-05-12T23:52:55.122Z,11.53
2018-05-12T23:55:23.343Z,11.07
2018-05-12T23:57:50.790Z,11.90
